Time;durP1;ratioP1;P1;durP2;ratioP2;P2;SDS_P1;SDS_P2;PMS_P1;PMS_P2;Temp;Humidity;BMP_temperature;BMP_pressure;BME280_temperature;BME280_humidity;BME280_pressure;Samples;Min_cycle;Max_cycle;Signal;HPM_P1;HPM_P2
2023/01/02 00:01:26;;;;;;;23.27;15.98;;;10.70;99.90;;;;;;5009569;28;20450;-39
2023/01/02 00:03:55;;;;;;;24.25;16.52;;;10.80;99.90;;;;;;5003404;28;20044;-39
2023/01/02 00:06:22;;;;;;;26.05;16.17;;;10.80;99.90;;;;;;5009518;28;20039;-38
2023/01/02 00:08:48;;;;;;;28.33;17.45;;;10.80;99.90;;;;;;5003083;28;20409;-39
2023/01/02 00:11:13;;;;;;;26.33;16.08;;;10.80;99.90;;;;;;4999616;28;20040;-39
2023/01/02 00:13:39;;;;;;;26.55;15.52;;;10.80;99.90;;;;;;5005700;28;20044;-39
2023/01/02 00:16:06;;;;;;;28.08;16.95;;;10.80;99.90;;;;;;5001255;28;20121;-39
2023/01/02 00:18:31;;;;;;;25.52;17.23;;;10.80;99.90;;;;;;5008714;28;20092;-39
2023/01/02 00:21:02;;;;;;;25.80;17.38;;;10.80;99.90;;;;;;5023823;28;20034;-39
2023/01/02 00:23:27;;;;;;;28.85;18.50;;;10.80;99.90;;;;;;5009652;28;20034;-39
2023/01/02 00:25:53;;;;;;;27.95;17.50;;;10.80;99.90;;;;;;5015966;28;20092;-39
2023/01/02 00:28:19;;;;;;;33.97;18.17;;;10.80;99.90;;;;;;4987249;28;20053;-39
2023/01/02 00:30:44;;;;;;;26.10;17.05;;;10.90;99.90;;;;;;5009390;28;20418;-39
2023/01/02 00:33:10;;;;;;;29.20;17.63;;;10.90;99.90;;;;;;5006998;28;20463;-39
2023/01/02 00:35:37;;;;;;;29.88;17.17;;;10.90;99.90;;;;;;5003696;28;20042;-39
2023/01/02 00:38:04;;;;;;;25.60;17.17;;;10.90;99.90;;;;;;5009698;28;20031;-39
2023/01/02 00:40:29;;;;;;;25.38;17.33;;;10.90;99.90;;;;;;5013674;28;20047;-39
2023/01/02 00:42:55;;;;;;;23.48;17.15;;;10.90;99.90;;;;;;5007584;28;20116;-39
2023/01/02 00:45:21;;;;;;;26.38;17.17;;;10.90;99.90;;;;;;5003576;28;20085;-39
2023/01/02 00:47:46;;;;;;;26.10;18.05;;;11.00;99.90;;;;;;5002779;28;20042;-39
2023/01/02 00:50:12;;;;;;;29.13;19.13;;;11.00;99.90;;;;;;5009993;28;20038;-39
2023/01/02 00:52:38;;;;;;;26.77;18.40;;;11.00;99.90;;;;;;5009053;28;20038;-39
2023/01/02 00:55:04;;;;;;;26.63;20.05;;;11.00;99.90;;;;;;5003460;28;20034;-39
2023/01/02 00:57:29;;;;;;;24.42;18.65;;;11.00;99.90;;;;;;5007985;28;20030;-39
2023/01/02 00:59:55;;;;;;;22.65;17.83;;;11.10;99.90;;;;;;5004768;28;20045;-39
2023/01/02 01:02:21;;;;;;;25.25;17.50;;;11.10;99.90;;;;;;4999502;28;20044;-39
2023/01/02 01:04:47;;;;;;;26.15;17.67;;;11.10;99.90;;;;;;5010053;28;20045;-39
2023/01/02 01:07:13;;;;;;;25.42;18.70;;;11.10;99.90;;;;;;5007836;28;20042;-39
2023/01/02 01:09:38;;;;;;;25.75;19.02;;;11.10;99.90;;;;;;4998982;28;20040;-39
2023/01/02 01:12:04;;;;;;;26.33;18.35;;;11.10;99.90;;;;;;5018485;28;20045;-39
2023/01/02 01:14:30;;;;;;;22.10;16.20;;;11.10;99.90;;;;;;5011387;28;20051;-39
2023/01/02 01:16:55;;;;;;;21.40;16.23;;;11.20;99.90;;;;;;5005436;28;20097;-39
2023/01/02 01:19:21;;;;;;;21.20;15.95;;;11.20;99.90;;;;;;4994891;28;20030;-39
2023/01/02 01:21:47;;;;;;;23.75;15.88;;;11.20;99.90;;;;;;5022372;28;20545;-39
2023/01/02 01:24:14;;;;;;;22.80;15.18;;;11.20;99.90;;;;;;4999014;28;20046;-40
2023/01/02 01:26:39;;;;;;;22.27;16.08;;;11.20;99.90;;;;;;5002256;28;20034;-40
2023/01/02 01:29:05;;;;;;;22.92;16.23;;;11.20;99.90;;;;;;5007812;28;20124;-39
2023/01/02 01:31:31;;;;;;;26.10;15.40;;;11.20;99.90;;;;;;5004008;28;20042;-39
2023/01/02 01:33:56;;;;;;;26.23;16.27;;;11.20;99.90;;;;;;5008659;28;20041;-39
2023/01/02 01:36:24;;;;;;;20.83;14.85;;;11.20;99.90;;;;;;5009054;28;20077;-38
2023/01/02 01:38:50;;;;;;;22.98;15.55;;;11.20;99.90;;;;;;5005432;28;20038;-38
2023/01/02 01:41:19;;;;;;;22.58;15.23;;;11.20;99.90;;;;;;5011139;28;20404;-38
2023/01/02 01:43:56;;;;;;;22.33;14.25;;;11.20;99.90;;;;;;5003007;28;20092;-39
2023/01/02 01:46:25;;;;;;;19.10;13.52;;;11.10;99.90;;;;;;5000342;28;20045;-38
2023/01/02 01:49:08;;;;;;;22.48;14.38;;;11.20;99.90;;;;;;5005831;28;20159;-39
2023/01/02 01:51:43;;;;;;;22.48;13.18;;;11.20;99.90;;;;;;5005061;28;20052;-39
2023/01/02 01:54:10;;;;;;;23.20;14.90;;;11.20;99.90;;;;;;5000176;28;20074;-38
2023/01/02 01:56:40;;;;;;;25.60;14.48;;;11.20;99.90;;;;;;5005527;28;20030;-39
2023/01/02 01:59:08;;;;;;;22.33;14.20;;;11.20;99.90;;;;;;5012334;28;20495;-39
2023/01/02 02:01:34;;;;;;;24.13;13.98;;;11.20;99.90;;;;;;5004729;28;20039;-39
2023/01/02 02:04:00;;;;;;;21.85;13.77;;;11.20;99.90;;;;;;5026124;28;20160;-39
2023/01/02 02:06:27;;;;;;;25.27;13.52;;;11.20;99.90;;;;;;4995653;28;20129;-38
2023/01/02 02:09:28;;;;;;;21.70;13.55;;;11.20;99.90;;;;;;5006203;28;20042;-39
2023/01/02 02:11:54;;;;;;;20.13;13.98;;;11.20;99.90;;;;;;5013288;28;20085;-39
2023/01/02 02:14:20;;;;;;;23.63;13.93;;;11.20;99.90;;;;;;5013075;28;20041;-39
2023/01/02 02:17:02;;;;;;;19.13;13.15;;;11.20;99.90;;;;;;5009529;28;20026;-39
2023/01/02 02:20:07;;;;;;;19.40;12.90;;;11.20;99.90;;;;;;5018597;28;20046;-38
2023/01/02 02:23:10;;;;;;;17.58;12.15;;;11.20;99.90;;;;;;5008145;28;20166;-38
2023/01/02 02:25:48;;;;;;;20.63;12.35;;;11.20;99.90;;;;;;5013897;28;20041;-38
2023/01/02 02:28:50;;;;;;;16.48;11.32;;;11.20;99.90;;;;;;5006519;28;20156;-38
2023/01/02 02:31:27;;;;;;;17.08;11.50;;;11.20;99.90;;;;;;5012905;28;20073;-39
2023/01/02 02:34:08;;;;;;;19.00;11.30;;;11.30;99.90;;;;;;5008659;28;20042;-38
2023/01/02 02:37:03;;;;;;;21.65;11.85;;;11.30;99.90;;;;;;5007020;28;20042;-38
2023/01/02 02:39:50;;;;;;;18.85;10.68;;;11.30;99.90;;;;;;5004036;28;20138;-38
2023/01/02 02:42:48;;;;;;;20.73;11.10;;;11.30;99.90;;;;;;5025039;28;20034;-38
2023/01/02 02:45:36;;;;;;;16.05;9.93;;;11.30;99.90;;;;;;4998439;28;20283;-38
2023/01/02 02:48:01;;;;;;;17.40;10.32;;;11.30;99.90;;;;;;5022312;28;20077;-38
2023/01/02 02:50:31;;;;;;;15.80;10.10;;;11.30;99.90;;;;;;4994086;28;20077;-38
2023/01/02 02:53:12;;;;;;;17.27;9.90;;;11.30;99.90;;;;;;5003881;28;20046;-38
2023/01/02 02:55:44;;;;;;;15.50;9.98;;;11.30;99.90;;;;;;5002987;28;20061;-38
2023/01/02 02:58:12;;;;;;;15.73;9.25;;;11.30;99.90;;;;;;5002549;28;20042;-38
2023/01/02 03:00:37;;;;;;;15.70;10.25;;;11.30;99.90;;;;;;5015389;28;20073;-38
2023/01/02 03:03:20;;;;;;;14.15;9.65;;;11.30;99.90;;;;;;5004865;28;20084;-38
2023/01/02 03:06:16;;;;;;;16.07;10.17;;;11.40;99.90;;;;;;5008836;28;20033;-38
2023/01/02 03:08:49;;;;;;;15.20;10.15;;;11.40;99.90;;;;;;5023108;28;20046;-38
2023/01/02 03:11:15;;;;;;;15.23;10.00;;;11.40;99.90;;;;;;5001100;28;20080;-38
2023/01/02 03:13:58;;;;;;;15.98;10.40;;;11.40;99.90;;;;;;5014046;28;20077;-38
2023/01/02 03:16:32;;;;;;;16.88;10.05;;;11.40;99.90;;;;;;5008699;28;20042;-38
2023/01/02 03:19:03;;;;;;;;;;;11.40;99.90;;;;;;5004063;28;20473;-38
2023/01/02 03:21:56;;;;;;;15.45;9.73;;;11.30;99.90;;;;;;5021801;28;19925;-38
2023/01/02 03:24:23;;;;;;;16.17;10.75;;;11.40;99.90;;;;;;5003402;28;20034;-38
2023/01/02 03:26:52;;;;;;;14.85;10.02;;;11.40;99.90;;;;;;5006229;28;20092;-38
2023/01/02 03:29:32;;;;;;;13.18;9.40;;;11.40;99.90;;;;;;5006482;28;20034;-39
2023/01/02 03:32:02;;;;;;;20.85;10.18;;;11.30;99.90;;;;;;5011341;28;20095;-39
2023/01/02 03:34:32;;;;;;;14.85;9.88;;;11.30;99.90;;;;;;4997967;28;20041;-38
2023/01/02 03:37:14;;;;;;;15.70;9.50;;;11.30;99.90;;;;;;5004150;28;20033;-39
2023/01/02 03:39:47;;;;;;;13.45;10.50;;;11.40;99.90;;;;;;5008677;28;20041;-39
2023/01/02 03:42:23;;;;;;;17.00;10.55;;;11.40;99.90;;;;;;5010332;28;20531;-39
2023/01/02 03:44:59;;;;;;;17.05;10.55;;;11.30;99.90;;;;;;5008730;28;20071;-39
2023/01/02 03:47:38;;;;;;;18.52;10.57;;;11.40;99.90;;;;;;5004245;28;20451;-39
2023/01/02 03:50:15;;;;;;;19.85;10.55;;;11.30;99.90;;;;;;5000454;28;20034;-39
2023/01/02 03:52:41;;;;;;;24.08;11.10;;;11.40;99.90;;;;;;5002436;28;20049;-39
2023/01/02 03:55:07;;;;;;;19.08;12.10;;;11.40;99.90;;;;;;5014596;28;20030;-39
2023/01/02 03:57:59;;;;;;;16.98;10.32;;;11.40;99.90;;;;;;5005608;28;20506;-39
2023/01/02 04:00:33;;;;;;;21.73;10.25;;;11.40;99.90;;;;;;5010473;28;20038;-39
2023/01/02 04:03:23;;;;;;;18.65;9.38;;;11.40;99.90;;;;;;5006624;28;20034;-38
2023/01/02 04:05:53;;;;;;;16.75;9.68;;;11.40;99.90;;;;;;5007544;28;20042;-39
2023/01/02 04:08:31;;;;;;;16.48;10.05;;;11.50;99.90;;;;;;5005924;28;20037;-39
2023/01/02 04:10:59;;;;;;;19.85;11.30;;;11.50;99.90;;;;;;5006284;28;20046;-39
2023/01/02 04:13:50;;;;;;;18.60;9.95;;;11.40;99.90;;;;;;5008925;28;20399;-39
2023/01/02 04:16:23;;;;;;;16.73;9.43;;;11.40;99.90;;;;;;5002758;28;20502;-39
2023/01/02 04:19:22;;;;;;;15.80;9.93;;;11.50;99.90;;;;;;5006024;28;20034;-39
2023/01/02 04:21:51;;;;;;;12.65;9.15;;;11.50;99.90;;;;;;5008370;28;20076;-40
2023/01/02 04:24:34;;;;;;;19.67;10.25;;;11.50;99.90;;;;;;5007164;28;20491;-39
2023/01/02 04:27:06;;;;;;;15.18;9.82;;;11.50;99.90;;;;;;5005825;28;20403;-39
2023/01/02 04:29:32;;;;;;;16.92;10.35;;;11.50;99.90;;;;;;5012526;28;20037;-39
2023/01/02 04:32:06;;;;;;;19.70;9.57;;;11.60;99.90;;;;;;4994306;28;20054;-40
2023/01/02 04:34:36;;;;;;;16.75;8.70;;;11.60;99.90;;;;;;5002828;28;20037;-39
2023/01/02 04:37:02;;;;;;;14.65;9.18;;;11.60;99.90;;;;;;5026303;28;20037;-39
2023/01/02 04:39:28;;;;;;;15.13;9.00;;;11.60;99.90;;;;;;5008838;28;20387;-39
2023/01/02 04:41:54;;;;;;;12.00;8.68;;;11.70;99.90;;;;;;5019330;28;20074;-39
2023/01/02 04:44:19;;;;;;;13.50;8.32;;;11.70;99.90;;;;;;5007773;28;20065;-39
2023/01/02 04:46:45;;;;;;;12.70;8.93;;;11.70;99.90;;;;;;5015203;28;20093;-39
2023/01/02 04:49:11;;;;;;;13.77;8.63;;;11.70;99.90;;;;;;5003086;28;20107;-39
2023/01/02 04:51:37;;;;;;;11.40;7.63;;;11.70;99.90;;;;;;5009247;28;20042;-39
2023/01/02 04:54:03;;;;;;;15.13;7.82;;;11.80;99.90;;;;;;5008251;28;20037;-39
2023/01/02 04:56:28;;;;;;;14.57;7.93;;;11.80;99.90;;;;;;5004516;28;20073;-39
2023/01/02 04:58:54;;;;;;;12.32;7.85;;;11.80;99.90;;;;;;5007652;28;20037;-39
2023/01/02 05:01:20;;;;;;;14.02;8.32;;;11.90;99.90;;;;;;5003549;28;20426;-39
2023/01/02 05:03:48;;;;;;;11.80;7.10;;;11.90;99.90;;;;;;5010119;28;20048;-39
2023/01/02 05:06:14;;;;;;;13.05;7.53;;;11.90;99.90;;;;;;5005356;28;20041;-40
2023/01/02 05:08:41;;;;;;;13.80;8.32;;;11.90;99.90;;;;;;5005990;28;20046;-40
2023/01/02 05:11:17;;;;;;;11.95;8.00;;;11.90;99.90;;;;;;5010018;28;20061;-40
2023/01/02 05:13:44;;;;;;;17.77;7.80;;;11.90;99.90;;;;;;5007948;28;20041;-40
2023/01/02 05:16:10;;;;;;;13.30;8.15;;;11.90;99.90;;;;;;5001347;28;20132;-39
2023/01/02 05:18:36;;;;;;;13.35;8.10;;;11.90;99.90;;;;;;4996675;28;20040;-40
2023/01/02 05:21:06;;;;;;;15.02;8.60;;;11.90;99.90;;;;;;5008121;28;20042;-40
2023/01/02 05:23:50;;;;;;;15.73;8.43;;;11.90;99.90;;;;;;5010401;28;20061;-40
2023/01/02 05:26:17;;;;;;;12.77;8.23;;;11.90;99.90;;;;;;5006215;28;20511;-40
2023/01/02 05:28:43;;;;;;;11.52;7.93;;;11.90;99.90;;;;;;5009906;28;20510;-40
2023/01/02 05:31:09;;;;;;;13.95;8.23;;;11.90;99.90;;;;;;5008832;28;20038;-39
2023/01/02 05:33:35;;;;;;;14.10;8.32;;;11.90;99.90;;;;;;4994432;28;20042;-39
2023/01/02 05:36:04;;;;;;;13.57;8.10;;;11.90;99.90;;;;;;4997411;28;20499;-40
2023/01/02 05:38:30;;;;;;;15.45;8.65;;;11.90;99.90;;;;;;5009749;28;20069;-40
2023/01/02 05:41:04;;;;;;;13.75;8.18;;;11.90;99.90;;;;;;5010113;28;20459;-41
2023/01/02 05:43:31;;;;;;;;;;;11.90;99.90;;;;;;4993149;28;20042;-40
2023/01/02 05:45:57;;;;;;;14.70;7.68;;;11.90;99.90;;;;;;4999721;28;19917;-40
2023/01/02 05:48:23;;;;;;;15.27;8.23;;;11.90;99.90;;;;;;5008390;28;20033;-39
2023/01/02 05:50:48;;;;;;;13.60;7.97;;;11.90;99.90;;;;;;5010388;28;20046;-39
2023/01/02 05:53:15;;;;;;;14.35;8.27;;;11.90;99.90;;;;;;5003622;28;20056;-40
2023/01/02 05:55:41;;;;;;;12.77;8.38;;;11.90;99.90;;;;;;5017203;28;20042;-39
2023/01/02 05:58:06;;;;;;;10.35;6.97;;;11.90;99.90;;;;;;5005334;28;20373;-40
2023/01/02 06:00:32;;;;;;;15.43;7.68;;;12.00;99.90;;;;;;5017345;28;20117;-40
2023/01/02 06:02:58;;;;;;;10.75;7.57;;;12.00;99.90;;;;;;5006531;28;20041;-39
2023/01/02 06:05:23;;;;;;;11.82;8.27;;;12.00;99.90;;;;;;5009458;28;20578;-39
2023/01/02 06:07:49;;;;;;;13.82;8.10;;;12.00;99.90;;;;;;5005752;28;20054;-40
2023/01/02 06:10:15;;;;;;;11.93;7.50;;;12.00;99.90;;;;;;5013587;28;20515;-40
2023/01/02 06:12:40;;;;;;;9.23;7.28;;;12.00;99.90;;;;;;5002370;28;20046;-39
2023/01/02 06:15:07;;;;;;;9.57;7.30;;;12.00;99.90;;;;;;5000424;28;20042;-39
2023/01/02 06:17:33;;;;;;;9.13;7.22;;;12.00;99.90;;;;;;5008834;28;20033;-40
2023/01/02 06:19:58;;;;;;;12.02;8.15;;;12.00;99.90;;;;;;5010246;28;20542;-39
2023/01/02 06:22:24;;;;;;;10.38;7.30;;;12.00;99.90;;;;;;5012603;28;20038;-39
2023/01/02 06:24:50;;;;;;;13.45;6.93;;;12.00;99.90;;;;;;5015590;28;20403;-39
2023/01/02 06:27:15;;;;;;;11.35;7.88;;;12.00;99.90;;;;;;5016956;28;20177;-39
2023/01/02 06:29:41;;;;;;;10.80;7.32;;;12.00;99.90;;;;;;5007586;28;20165;-40
2023/01/02 06:32:07;;;;;;;10.13;7.28;;;12.00;99.90;;;;;;5011239;28;20046;-39
2023/01/02 06:34:33;;;;;;;10.70;7.47;;;12.00;99.90;;;;;;5008646;28;20050;-40
2023/01/02 06:36:58;;;;;;;10.68;7.72;;;12.10;99.90;;;;;;5012058;28;20080;-40
2023/01/02 06:39:24;;;;;;;15.40;8.68;;;12.00;99.90;;;;;;5012507;28;20395;-40
2023/01/02 06:41:51;;;;;;;14.63;8.55;;;12.10;99.90;;;;;;5012731;28;20208;-40
2023/01/02 06:44:16;;;;;;;14.23;8.65;;;12.00;99.90;;;;;;5002839;28;20042;-40
2023/01/02 06:46:42;;;;;;;15.35;8.30;;;12.00;99.90;;;;;;5013246;28;20326;-40
2023/01/02 06:49:08;;;;;;;11.60;7.75;;;12.00;99.90;;;;;;4993357;28;20038;-40
2023/01/02 06:51:34;;;;;;;12.85;8.38;;;12.00;99.90;;;;;;5006220;28;20108;-40
2023/01/02 06:53:59;;;;;;;8.93;7.22;;;12.00;99.90;;;;;;5009301;28;20120;-40
2023/01/02 06:56:25;;;;;;;12.13;7.85;;;12.00;99.90;;;;;;5009333;28;20038;-41
2023/01/02 06:58:51;;;;;;;13.10;7.90;;;11.90;99.90;;;;;;5005733;28;20045;-41
2023/01/02 07:01:20;;;;;;;14.05;7.85;;;12.00;99.90;;;;;;5025671;28;20109;-40
2023/01/02 07:03:46;;;;;;;12.85;7.95;;;12.00;99.90;;;;;;5003226;28;20117;-40
2023/01/02 07:06:15;;;;;;;9.82;7.70;;;12.00;99.90;;;;;;4997419;28;20126;-41
2023/01/02 07:08:42;;;;;;;17.25;8.23;;;11.90;99.90;;;;;;5017653;28;20037;-41
2023/01/02 07:11:15;;;;;;;11.82;7.85;;;11.90;99.90;;;;;;5010445;28;20084;-41
2023/01/02 07:13:42;;;;;;;14.07;8.82;;;11.90;99.90;;;;;;5002482;28;20100;-41
2023/01/02 07:16:11;;;;;;;11.40;8.07;;;11.90;99.90;;;;;;5012528;28;20065;-40
2023/01/02 07:18:37;;;;;;;11.80;8.93;;;11.90;99.90;;;;;;5002323;28;20034;-41
2023/01/02 07:21:04;;;;;;;11.57;8.02;;;11.90;99.90;;;;;;5027205;28;20541;-41
2023/01/02 07:23:30;;;;;;;10.10;7.32;;;11.90;99.90;;;;;;5018288;28;20072;-40
2023/01/02 07:26:00;;;;;;;7.72;6.10;;;11.90;99.90;;;;;;5008755;28;20487;-41
2023/01/02 07:28:27;;;;;;;7.97;5.22;;;11.90;99.90;;;;;;5006683;28;20046;-41
2023/01/02 07:31:01;;;;;;;5.38;4.80;;;11.80;99.90;;;;;;5013509;28;20045;-41
2023/01/02 07:33:28;;;;;;;3.75;3.33;;;11.70;99.90;;;;;;5004037;28;20060;-41
2023/01/02 07:36:02;;;;;;;2.90;2.60;;;11.50;99.90;;;;;;5008667;28;20059;-41
2023/01/02 07:38:28;;;;;;;2.80;2.60;;;11.30;99.90;;;;;;5004502;28;20034;-40
2023/01/02 07:40:54;;;;;;;2.85;2.65;;;11.20;99.90;;;;;;5011782;28;20514;-41
2023/01/02 07:43:20;;;;;;;2.97;2.50;;;11.00;99.90;;;;;;4992533;28;20030;-40
2023/01/02 07:45:46;;;;;;;4.00;2.65;;;10.90;99.90;;;;;;5005620;28;20566;-41
2023/01/02 07:48:11;;;;;;;3.65;3.15;;;10.80;99.90;;;;;;5021724;28;20129;-41
2023/01/02 07:50:37;;;;;;;3.72;3.42;;;10.80;99.90;;;;;;5006617;28;20547;-40
2023/01/02 07:53:03;;;;;;;5.28;3.95;;;10.70;99.90;;;;;;5005669;28;20073;-40
2023/01/02 07:55:29;;;;;;;5.35;4.50;;;10.70;99.90;;;;;;5028123;28;20073;-40
2023/01/02 07:57:55;;;;;;;4.78;4.38;;;10.60;99.90;;;;;;5001440;28;20085;-41
2023/01/02 08:00:21;;;;;;;5.63;5.13;;;10.50;99.90;;;;;;5001829;28;20034;-41
2023/01/02 08:02:51;;;;;;;6.35;5.75;;;10.50;99.90;;;;;;5021993;28;20029;-41
2023/01/02 08:05:17;;;;;;;6.40;5.45;;;10.40;99.90;;;;;;5011670;28;20045;-41
2023/01/02 08:07:43;;;;;;;6.18;5.53;;;10.40;99.90;;;;;;5005135;28;20113;-41
2023/01/02 08:10:10;;;;;;;7.95;6.18;;;10.30;99.90;;;;;;5007059;28;20045;-40
2023/01/02 08:12:36;;;;;;;7.55;5.78;;;10.30;99.90;;;;;;5011076;28;20049;-40
2023/01/02 08:15:02;;;;;;;6.53;5.63;;;10.30;99.90;;;;;;5005282;28;20038;-41
2023/01/02 08:17:30;;;;;;;6.53;5.85;;;10.20;99.90;;;;;;5006491;28;20109;-40
2023/01/02 08:19:56;;;;;;;7.03;6.20;;;10.20;99.90;;;;;;5004907;28;20038;-41
2023/01/02 08:22:22;;;;;;;7.43;5.93;;;10.10;99.90;;;;;;4994412;28;20048;-41
2023/01/02 08:24:49;;;;;;;7.78;6.40;;;10.10;99.90;;;;;;4995796;28;20045;-41
2023/01/02 08:27:14;;;;;;;7.90;6.38;;;10.10;99.90;;;;;;5013689;28;20077;-41
2023/01/02 08:29:40;;;;;;;7.50;6.15;;;10.00;99.90;;;;;;5007507;28;20084;-40
2023/01/02 08:32:06;;;;;;;8.07;6.82;;;10.00;99.90;;;;;;4999456;28;20511;-41
2023/01/02 08:34:33;;;;;;;9.35;5.82;;;10.00;99.90;;;;;;5007696;28;20042;-41
2023/01/02 08:36:59;;;;;;;7.13;5.93;;;9.90;99.90;;;;;;5005377;28;20034;-41
2023/01/02 08:39:25;;;;;;;7.63;5.35;;;9.90;99.90;;;;;;5007557;28;20034;-41
2023/01/02 08:41:51;;;;;;;6.25;4.50;;;9.90;99.90;;;;;;5021754;28;20427;-40
2023/01/02 08:44:16;;;;;;;3.85;3.22;;;9.80;99.90;;;;;;5004194;28;20034;-41
2023/01/02 08:46:42;;;;;;;3.95;2.58;;;9.80;99.90;;;;;;5019018;28;20033;-41
2023/01/02 08:49:08;;;;;;;3.53;2.97;;;9.70;99.90;;;;;;5021047;28;20389;-40
2023/01/02 08:51:33;;;;;;;5.68;3.45;;;9.70;99.90;;;;;;5008131;28;20124;-41
2023/01/02 08:53:59;;;;;;;4.65;3.17;;;9.60;99.90;;;;;;5019832;28;20042;-40
2023/01/02 08:56:28;;;;;;;4.63;3.30;;;9.50;99.90;;;;;;5007306;28;20040;-40
2023/01/02 08:58:57;;;;;;;4.20;2.45;;;9.50;99.90;;;;;;5002369;28;20037;-40
2023/01/02 09:01:23;;;;;;;4.45;3.30;;;9.50;99.90;;;;;;5026320;28;20038;-40
2023/01/02 09:03:50;;;;;;;5.30;3.40;;;9.40;99.90;;;;;;4998844;28;20038;-40
2023/01/02 09:06:16;;;;;;;4.80;3.35;;;9.40;99.90;;;;;;4994661;28;20042;-41
2023/01/02 09:08:42;;;;;;;4.55;3.25;;;9.40;99.90;;;;;;5001892;28;20542;-40
2023/01/02 09:11:17;;;;;;;4.82;2.92;;;9.40;99.90;;;;;;5004508;28;20077;-40
2023/01/02 09:13:43;;;;;;;5.55;3.42;;;9.40;99.90;;;;;;5003167;28;20096;-41
2023/01/02 09:16:12;;;;;;;5.15;3.58;;;9.30;99.90;;;;;;5016001;28;20096;-40
2023/01/02 09:18:39;;;;;;;4.72;3.55;;;9.30;99.90;;;;;;4997390;28;20034;-40
2023/01/02 09:21:05;;;;;;;5.28;2.97;;;9.30;99.90;;;;;;5002169;28;20100;-41
2023/01/02 09:23:32;;;;;;;4.03;2.80;;;9.30;99.90;;;;;;5013889;28;20510;-40
2023/01/02 09:26:03;;;;;;;4.10;2.47;;;9.20;99.90;;;;;;5005447;28;20042;-40
2023/01/02 09:28:31;;;;;;;3.00;2.40;;;9.20;99.90;;;;;;5009905;28;20507;-40
2023/01/02 09:30:57;;;;;;;4.88;2.63;;;9.20;99.90;;;;;;5006088;28;20091;-40
2023/01/02 09:33:23;;;;;;;4.05;2.33;;;9.20;99.90;;;;;;5009621;28;20449;-41
2023/01/02 09:35:50;;;;;;;5.10;3.03;;;9.10;99.90;;;;;;5006556;28;20054;-40
2023/01/02 09:38:15;;;;;;;3.85;3.00;;;9.10;99.90;;;;;;5011865;28;20037;-40
2023/01/02 09:40:51;;;;;;;3.67;2.88;;;9.10;99.90;;;;;;5018699;28;20080;-40
2023/01/02 09:43:26;;;;;;;5.03;2.47;;;9.10;99.90;;;;;;5025744;28;20092;-40
2023/01/02 09:45:54;;;;;;;3.13;2.25;;;9.10;99.90;;;;;;5008764;28;20488;-40
2023/01/02 09:48:21;;;;;;;2.90;2.20;;;9.10;99.90;;;;;;5008593;28;20038;-40
2023/01/02 09:50:48;;;;;;;3.63;2.15;;;9.10;99.90;;;;;;5006506;28;20044;-40
2023/01/02 09:53:15;;;;;;;2.15;1.88;;;9.00;99.90;;;;;;4998987;28;20401;-40
2023/01/02 09:55:55;;;;;;;3.47;2.33;;;9.00;99.90;;;;;;5004509;28;20095;-40
2023/01/02 09:58:44;;;;;;;3.03;2.13;;;9.00;99.90;;;;;;4995823;28;20040;-40
2023/01/02 10:01:28;;;;;;;8.13;2.80;;;9.00;99.90;;;;;;5026594;28;20038;-40
2023/01/02 10:04:06;;;;;;;26.65;17.10;;;9.00;99.90;;;;;;5001117;28;20162;-39
2023/01/02 10:06:42;;;;;;;5.63;4.82;;;9.00;99.90;;;;;;5023297;28;20049;-40
2023/01/02 10:09:17;;;;;;;2.88;2.10;;;9.00;99.90;;;;;;5025455;28;20042;-40
2023/01/02 10:11:52;;;;;;;11.60;7.70;;;9.10;99.90;;;;;;5012085;28;20099;-40
2023/01/02 10:14:55;;;;;;;8.50;6.35;;;9.10;99.90;;;;;;5022983;28;20107;-40
2023/01/02 10:17:21;;;;;;;5.15;3.80;;;9.10;99.90;;;;;;5003738;28;20100;-40
2023/01/02 10:20:17;;;;;;;5.32;3.50;;;9.10;99.90;;;;;;5004652;28;20042;-40
2023/01/02 10:22:58;;;;;;;5.57;3.17;;;9.20;99.90;;;;;;5008882;28;20564;-40
2023/01/02 10:25:37;;;;;;;6.53;4.57;;;9.20;99.90;;;;;;5004605;28;20041;-40
2023/01/02 10:28:15;;;;;;;6.93;3.47;;;9.20;99.90;;;;;;5013060;28;20123;-40
2023/01/02 10:30:51;;;;;;;5.03;2.70;;;9.20;99.90;;;;;;5007445;28;20455;-40
2023/01/02 10:33:29;;;;;;;5.40;2.67;;;9.30;99.90;;;;;;5004641;28;20426;-40
2023/01/02 10:35:59;;;;;;;6.20;3.13;;;9.30;99.90;;;;;;5001114;28;20069;-40
2023/01/02 10:38:35;;;;;;;9.15;6.63;;;9.30;99.90;;;;;;5003700;28;20037;-41
2023/01/02 10:41:02;;;;;;;7.18;4.80;;;9.30;99.90;;;;;;5012335;28;20045;-40
2023/01/02 10:43:29;;;;;;;7.78;5.18;;;9.20;99.90;;;;;;5008986;28;20030;-40
2023/01/02 10:45:55;;;;;;;6.80;4.85;;;9.20;99.90;;;;;;5011046;28;20330;-40
2023/01/02 10:48:25;;;;;;;6.28;4.72;;;9.20;99.90;;;;;;5006891;28;20092;-40
2023/01/02 10:50:55;;;;;;;6.82;5.15;;;9.20;99.90;;;;;;5008090;28;20046;-39
2023/01/02 10:53:38;;;;;;;15.20;8.68;;;9.20;99.90;;;;;;5008488;28;20072;-42
2023/01/02 10:56:14;;;;;;;6.77;4.60;;;9.20;99.90;;;;;;5024568;28;20046;-40
2023/01/02 10:58:46;;;;;;;7.45;4.15;;;9.30;99.90;;;;;;5018943;28;20672;-41
2023/01/02 11:01:20;;;;;;;11.20;6.70;;;9.30;99.90;;;;;;5003552;28;20031;-41
2023/01/02 11:04:10;;;;;;;6.25;4.38;;;9.30;99.90;;;;;;5002948;28;20042;-40
2023/01/02 11:06:48;;;;;;;4.63;3.55;;;9.50;99.90;;;;;;5020579;28;20038;-40
2023/01/02 11:09:26;;;;;;;10.55;6.03;;;9.60;99.90;;;;;;5004406;28;20491;-40
2023/01/02 11:11:59;;;;;;;6.03;3.75;;;9.70;99.90;;;;;;4994080;28;20479;-40
2023/01/02 11:14:32;;;;;;;7.57;3.53;;;9.70;99.90;;;;;;5000932;28;20044;-39
2023/01/02 11:17:19;;;;;;;7.17;4.67;;;9.70;99.90;;;;;;5002780;28;20088;-39
2023/01/02 11:19:50;;;;;;;4.88;2.75;;;9.70;99.90;;;;;;5002463;28;20036;-40
2023/01/02 11:22:19;;;;;;;6.30;4.68;;;9.70;99.90;;;;;;5007610;28;20456;-40
2023/01/02 11:25:20;;;;;;;13.60;8.93;;;9.70;99.90;;;;;;5007834;28;20043;-40
2023/01/02 11:27:46;;;;;;;6.68;5.68;;;9.70;99.90;;;;;;5001329;28;20045;-39
2023/01/02 11:30:30;;;;;;;6.00;3.63;;;9.70;99.90;;;;;;5016955;28;20034;-38
2023/01/02 11:33:26;;;;;;;4.97;4.50;;;9.60;99.90;;;;;;5022746;28;20046;-40
2023/01/02 11:36:10;;;;;;;8.95;7.60;;;9.60;99.90;;;;;;5009133;28;20140;-39
2023/01/02 11:38:50;;;;;;;6.50;3.88;;;9.60;99.90;;;;;;5019671;28;20034;-39
2023/01/02 11:44:35;;;;;;;6.30;3.88;;;9.60;99.90;;;;;;5013552;28;20140;-39
2023/01/02 11:47:03;;;;;;;7.75;5.90;;;9.60;99.90;;;;;;5011402;28;20340;-40
2023/01/02 11:49:55;;;;;;;5.10;4.03;;;9.60;99.90;;;;;;5008867;28;20041;-39
2023/01/02 11:52:30;;;;;;;7.22;5.32;;;9.60;99.90;;;;;;4999230;28;20042;-39
2023/01/02 11:55:04;;;;;;;5.85;4.75;;;9.60;99.90;;;;;;5016216;28;20101;-39
2023/01/02 11:57:48;;;;;;;7.72;4.93;;;9.60;99.90;;;;;;4997665;28;20061;-39
2023/01/02 12:00:17;;;;;;;9.27;6.38;;;9.60;99.90;;;;;;4998844;28;20038;-39
2023/01/02 12:02:46;;;;;;;10.95;7.50;;;9.60;99.90;;;;;;5008600;28;20041;-39
2023/01/02 12:05:23;;;;;;;14.32;9.80;;;9.60;99.90;;;;;;5001315;28;20121;-40
2023/01/02 12:07:58;;;;;;;10.93;8.02;;;9.60;99.90;;;;;;5007756;28;20045;-39
2023/01/02 12:10:38;;;;;;;50.50;24.17;;;9.60;99.90;;;;;;5002645;28;20031;-39
2023/01/02 12:13:26;;;;;;;41.30;19.50;;;9.80;99.90;;;;;;5010785;28;20045;-40
2023/01/02 12:16:04;;;;;;;19.27;11.15;;;10.00;99.90;;;;;;5009876;28;20446;-40
2023/01/02 12:18:46;;;;;;;24.90;14.40;;;10.00;99.90;;;;;;5019979;28;20091;-39
2023/01/02 12:21:32;;;;;;;33.63;20.55;;;9.90;99.90;;;;;;5000195;28;20395;-39
2023/01/02 12:24:09;;;;;;;8.80;7.32;;;9.90;99.90;;;;;;5018877;28;20057;-40
2023/01/02 12:27:00;;;;;;;9.88;7.28;;;9.90;99.90;;;;;;5005401;28;20033;-39
2023/01/02 12:29:37;;;;;;;9.70;7.10;;;9.70;99.90;;;;;;5021675;28;20072;-39
2023/01/02 12:32:22;;;;;;;11.10;8.50;;;9.80;99.90;;;;;;5012543;28;20037;-38
2023/01/02 12:35:10;;;;;;;7.35;4.57;;;9.70;99.90;;;;;;5002669;28;20045;-39
2023/01/02 12:37:53;;;;;;;4.85;4.10;;;9.70;99.90;;;;;;5004072;28;20040;-40
2023/01/02 12:40:37;;;;;;;5.37;3.00;;;9.70;99.90;;;;;;5004368;28;20779;-39
2023/01/02 12:43:32;;;;;;;5.28;3.10;;;9.60;99.90;;;;;;5028207;28;20037;-39
2023/01/02 12:46:28;;;;;;;5.63;3.00;;;9.50;99.90;;;;;;5011483;28;20045;-39
2023/01/02 12:48:57;;;;;;;3.97;2.35;;;9.50;99.90;;;;;;5008795;28;20056;-40
2023/01/02 12:51:31;;;;;;;7.38;2.30;;;9.50;99.90;;;;;;5010857;28;20042;-40
2023/01/02 12:54:35;;;;;;;5.70;2.53;;;9.50;99.90;;;;;;5027493;28;20050;-40
2023/01/02 12:57:12;;;;;;;7.90;2.58;;;9.50;99.90;;;;;;5025803;28;20104;-40
2023/01/02 13:00:01;;;;;;;6.30;2.63;;;9.50;99.90;;;;;;5000317;28;20045;-41
2023/01/02 13:03:02;;;;;;;6.75;2.50;;;9.40;99.90;;;;;;5014860;28;20045;-39
2023/01/02 13:05:36;;;;;;;5.78;2.40;;;9.40;99.90;;;;;;5008630;28;20045;-39
2023/01/02 13:08:17;;;;;;;6.93;2.70;;;9.50;99.90;;;;;;5004713;28;20045;-39